Ana Sayfa
METAR-TAF:

METAR-TAF

Havaalanları :

Ercan Uluslararası Havalimanı

Lefkoşa, Kıbrıs

Enlem: 35-09N, Boylam: 033-30E, yükseklik: 91 m

Güncel hava durumu gözlemi

Rapor saat 10:50 UTC de 39 dakika önce yapıldı.
Rüzgar doğudan 5 kt
Sıcaklık 23°C
Nem 36%
Basınç 1015 hPa
Görüş mesafesi 10 km veya daha fazla
3000 ft yükseklikte az bulutlu
20000 ft yükseklikte parçalı bulutlu

METAR: LCEN 211050Z 10005KT 9999 FEW030 SCT200 23/07 Q1015 NOSIG RMK RWY11 03003KT

Saat: 13:29 (11:29 UTC)

Tahmin

Rapor saat 04:40 UTC de 6 saat ve 49 dakika önce yapıldı.
Ayın 21'si saat 06 UTC'den ayın 22'si saat 06 UTC'ye kadar geçerli Tahmin
Rüzgar batı/kuzeybatıdan 12 kt
Görüş mesafesi: 6000 m
2500 ft yükseklikte az bulutlu
20000 ft yükseklikte parçalı çok bulutlu
Dönüşüyor
ayın 21'si saat 07 UTC'den ayın 21'si saat 10 UTC'ye kadar
Görüş mesafesi 10 km veya daha fazla

TAF: LCEN 210440Z 2106/2206 29012KT 6000 FEW025 BKN200 BECMG 2107/2110 9999

4.000'den fazla havaalanı için hava durumu gözlemleri ve tahminleri (METAR ve TAF raporları).

Kullanılabilir istasyonlar harita üzerinde sarı ve kırmızı noktalarla gösterilir.

İstasyonun adını görmek için fareyi noktanın üzerinde gezdirin.

Sonrasında hava gözlem ve tahminlerini görmek için tıklayın.

Haritayı değiştirmek için: yaklaştırmak için siyah artı işaretli yeşil düğmeye ve uzaklaştırmak için de eksi işaretli düğmeye hızla tıklayın; bitişik haritalar için yeşil okları kullanın.


METAR-TAF: